Baraboo, Wisconsin
Current Conditions -  °F | °C
As of 12:35 PM on Thursday 30 Oct 2014 (Local Time) from KDLL Reporting Station
Overcast Overcast  
Wind Chill: 42°   Ceiling: 6000
Heat Index: 46°   Visibility: 10mi
Dew Point: 34°   Wind: 7mph
Humidity: 62%   Direction: 250°WSW
Pressure: 30.07"   Gusts: NA
Location:  43.47°N, 89.74°W
Report Text: KDLL 301735Z AUTO 25006KT 10SM OVC060 08/01 A3007 RMK AO2 T00780010
Loading
Personal Weather Stations






























Interactive Weather Map
Tropical Storm Tracking
New forecast layout! Learn more

10-Day Weather Forecast

Advertisements
Track Severe Weather on mobile